ADDS METAR Data INFO
IDs: Format: Raw Decoded Include TAF

Data at: 1333 UTC 19 Jul 2018

KSBP 191256Z 00000KT 10SM CLR 14/12 A2996 RMK AO2 SLP143 T01390122
KSBP 191156Z AUTO 29003KT 10SM CLR 14/12 A2996 RMK AO2 SLP143 T01390122 10161 20139 56002
KSBP 191056Z AUTO 00000KT 10SM CLR 14/12 A2996 RMK AO2 SLP143 T01440122
KSBP 190956Z AUTO 31003KT 10SM CLR 14/12 A2996 RMK AO2 SLP144 T01440122
KSBP 190856Z AUTO 31004KT 10SM CLR 14/12 A2997 RMK AO2 SLP145 T01440122 58003
KSBP 190756Z AUTO 31004KT 10SM CLR 14/12 A2997 RMK AO2 SLP146 T01440122 402830139
KSBP 190656Z AUTO 32003KT 10SM FEW090 15/12 A2998 RMK AO2 SLP150 T01500122
KSBP 190556Z AUTO 00000KT 10SM CLR 16/13 A2998 RMK AO2 SLP149 T01560128 10256 20150 51010
KSBP 190456Z AUTO 31005KT 10SM CLR 15/13 A2997 RMK AO2 SLP147 T01500128
KSBP 190356Z AUTO 30004KT 10SM CLR 16/13 A2996 RMK AO2 SLP144 T01560128
KSBP 190256Z 30007KT 10SM CLR 17/13 A2995 RMK AO2 SLP139 T01720128 56005
KSBP 190156Z 30011KT 10SM CLR 20/13 A2995 RMK AO2 SLP140 T02000133
KSBP 190056Z 27007KT 10SM CLR 25/14 A2995 RMK AO2 SLP140 T02500144
KSBP 182356Z 32009KT 10SM CLR 25/14 A2996 RMK AO2 SLP143 T02500139 10283 20217 56005
KSBP 182256Z 21005KT 10SM CLR 27/15 A2997 RMK AO2 SLP145 T02720150
KSBP 182156Z 30008KT 10SM CLR 28/15 A2997 RMK AO2 SLP147 T02780150
KSBP 182056Z 31008KT 10SM CLR 27/14 A2998 RMK AO2 SLP149 T02670139 56014
KSBP 181956Z 30010KT 10SM CLR 26/14 A2999 RMK AO2 SLP152 T02560139
KSBP 181856Z 30007KT 10SM CLR 25/14 A3000 RMK AO2 SLP157 T02500144
KSBP 181756Z 00000KT 10SM CLR 22/13 A3002 RMK AO2 SLP163 T02170133 10222 20139 58002
KSBP 181656Z 00000KT 10SM CLR 19/13 A3003 RMK AO2 SLP167 T01890133
KSBP 181610Z 00000KT 10SM FEW009 17/13 A3004 RMK AO2 T01670128
KSBP 181603Z 19005KT 10SM BKN009 16/13 A3005 RMK AO2 CIG 006V011 T01610128
KSBP 181556Z 23004KT 10SM SCT007 16/13 A3005 RMK AO2 SLP174 T01610128
KSBP 181518Z 12005KT 10SM OVC005 15/13 A3004 RMK AO2 T01500128
KSBP 181456Z 17005KT 6SM BR OVC004 14/13 A3003 RMK AO2 SLP166 T01440128 51010
KSBP 181411Z 17003KT 7SM OVC004 14/13 A3003 RMK AO2 T01390128
KSBP 181356Z 19004KT 4SM BR OVC005 14/13 A3003 RMK AO2 SLP166 T01390128
KSBP 181256Z 00000KT 10SM OVC006 14/12 A3001 RMK AO2 SLP159 T01440122
KSBP 181156Z AUTO 13003KT 10SM OVC006 14/12 A3000 RMK AO2 SLP156 T01440122 10144 20139 52003
KSBP 181056Z AUTO 10SM OVC006 14/12 A2999 RMK AO2 SLP153 T01390122
KSBP 180956Z AUTO 00000KT 10SM OVC006 14/12 A2999 RMK AO2 SLP155 T01390122
KSBP 180856Z AUTO 10SM OVC006 14/12 A2999 RMK AO2 SLP153 T01390122 55002
KSBP 180756Z AUTO 27004KT 10SM OVC005 14/13 A2998 RMK AO2 SLP151 T01390128 402560133
KSBP 180656Z AUTO 31007KT 10SM OVC006 14/13 A2999 RMK AO2 SLP155 T01390128
KSBP 180614Z AUTO 35006KT 10SM BKN007 14/13 A3000 RMK AO2 T01390128
KSBP 180556Z AUTO 31006KT 10SM FEW009 14/12 A2999 RMK AO2 SLP155 T01390122 10217 20139 52007
KSBP 180541Z AUTO 31005KT 10SM SCT009 14/12 A3000 RMK AO2 T01390122
KSBP 180456Z AUTO 32006KT 10SM CLR 14/12 A2999 RMK AO2 SLP154 T01390122
KSBP 180356Z AUTO 31007KT 10SM CLR 14/12 A2998 RMK AO2 SLP150 T01440122
KSBP 180256Z 31010KT 10SM CLR 16/12 A2997 RMK AO2 SLP149 T01610122 53006
KSBP 180156Z 32008KT 10SM CLR 19/13 A2996 RMK AO2 SLP144 T01940128